createdAt,value
2023-04-28T09:01:43.637Z,24.7818
2023-04-28T09:02:38.626Z,24.3364
2023-04-28T09:03:40.707Z,24.7083
2023-04-28T09:04:42.994Z,27.1583
2023-04-28T09:05:45.250Z,26.0417
2023-04-28T09:06:47.517Z,26.1583
2023-04-28T09:07:49.853Z,27.3462
2023-04-28T09:08:52.155Z,26.4154
2023-04-28T09:09:55.615Z,27.0083
2023-04-28T09:10:56.813Z,27.4091
2023-04-28T09:11:59.812Z,27.3462
2023-04-28T09:13:01.679Z,26.1750
2023-04-28T09:14:04.570Z,26.2583
2023-04-28T09:15:06.119Z,28.4167
2023-04-28T09:16:09.663Z,28.2167
2023-04-28T09:17:11.778Z,29.6250
2023-04-28T09:18:13.145Z,28.3917
2023-04-28T09:19:15.449Z,30.7077
2023-04-28T09:20:17.945Z,28.6615
2023-04-28T09:21:20.278Z,32.1308
2023-04-28T09:22:26.872Z,30.1750
2023-04-28T09:23:24.916Z,31.0182
2023-04-28T09:24:27.205Z,31.6154
2023-04-28T09:25:29.437Z,32.9692
2023-04-28T09:26:31.810Z,30.5462
2023-04-28T09:27:34.117Z,29.8385
2023-04-28T09:28:36.440Z,30.7231
2023-04-28T09:29:38.766Z,30.7846
2023-04-28T09:30:41.122Z,30.3308
2023-04-28T09:31:43.548Z,30.1231
2023-04-28T09:32:45.848Z,30.0308
2023-04-28T09:33:48.213Z,29.0462
2023-04-28T09:34:50.475Z,28.8231
2023-04-28T09:35:52.826Z,28.2000
2023-04-28T09:36:55.102Z,29.3385
2023-04-28T09:37:57.426Z,29.3385
2023-04-28T09:38:59.781Z,30.6308
2023-04-28T09:40:02.133Z,30.3692
2023-04-28T09:41:04.541Z,31.3846
2023-04-28T09:42:06.786Z,30.1769
2023-04-28T09:43:18.969Z,31.1750
2023-04-28T09:44:11.589Z,31.6000
2023-04-28T09:45:13.774Z,31.6769
2023-04-28T09:46:16.092Z,29.9692
2023-04-28T09:47:27.608Z,30.4500
2023-04-28T09:48:20.806Z,28.1364
2023-04-28T09:49:23.125Z,28.8231
2023-04-28T09:50:25.444Z,28.8923
2023-04-28T09:51:27.961Z,29.5462
2023-04-28T09:52:30.132Z,28.6583
2023-04-28T09:53:32.421Z,31.0000
2023-04-28T09:54:34.722Z,29.7769
2023-04-28T09:55:37.054Z,29.6417
2023-04-28T09:56:39.391Z,30.1000
2023-04-28T09:57:41.719Z,32.2154
2023-04-28T09:58:44.054Z,30.2692
2023-04-28T09:59:46.382Z,31.2538
2023-04-28T10:00:48.699Z,30.8462
2023-04-28T10:01:51.046Z,30.3538
2023-04-28T10:02:53.598Z,31.0846
2023-04-28T10:03:55.875Z,32.0250
2023-04-28T10:04:58.164Z,34.0615
2023-04-28T10:06:00.342Z,30.4333
2023-04-28T10:07:02.704Z,32.9769
2023-04-28T10:08:05.034Z,31.4077
2023-04-28T10:09:07.344Z,31.0083
2023-04-28T10:10:09.644Z,26.5000
2023-04-28T10:11:11.977Z,28.3462
2023-04-28T10:12:14.332Z,28.8000
2023-04-28T10:13:16.652Z,28.0917
2023-04-28T10:14:18.990Z,31.6538
2023-04-28T10:15:21.279Z,30.3462
2023-04-28T10:16:23.672Z,31.9308
2023-04-28T10:17:25.986Z,31.5833
2023-04-28T10:18:28.250Z,32.0000
2023-04-28T10:19:30.676Z,29.4692
2023-04-28T10:20:32.909Z,29.9000
2023-04-28T10:21:35.312Z,30.5385
2023-04-28T10:22:37.571Z,29.0538
2023-04-28T10:23:39.913Z,31.2769
2023-04-28T10:24:42.318Z,30.9385
2023-04-28T10:25:44.597Z,32.0000
2023-04-28T10:26:47.139Z,30.2462
2023-04-28T10:27:49.238Z,28.7250
2023-04-28T10:28:51.546Z,29.4500
2023-04-28T10:29:53.906Z,29.8769
2023-04-28T10:30:56.248Z,31.3385
2023-04-28T10:31:58.537Z,32.0769
2023-04-28T10:33:00.935Z,30.3154
2023-04-28T10:34:03.189Z,29.9385
2023-04-28T10:35:05.541Z,29.5000
2023-04-28T10:36:07.848Z,30.7154
2023-04-28T10:37:10.181Z,32.4769
2023-04-28T10:38:12.545Z,30.1000
2023-04-28T10:39:14.875Z,28.0385
2023-04-28T10:40:17.137Z,28.9769
2023-04-28T10:41:19.509Z,29.4154
2023-04-28T10:42:21.809Z,31.4846
2023-04-28T10:43:24.253Z,33.3846
2023-04-28T10:44:26.456Z,30.8538
2023-04-28T10:45:28.791Z,31.3750
2023-04-28T10:46:31.130Z,33.9833
2023-04-28T10:47:33.509Z,32.4231
2023-04-28T10:48:35.816Z,31.6154
2023-04-28T10:49:38.086Z,29.6615
2023-04-28T10:50:40.461Z,32.3769
2023-04-28T10:51:42.750Z,33.0692
2023-04-28T10:52:45.075Z,30.5615
2023-04-28T10:53:47.763Z,31.2077
2023-04-28T10:54:49.726Z,29.1583
2023-04-28T10:55:52.101Z,29.1769
2023-04-28T10:56:54.444Z,29.0462
2023-04-28T10:57:56.727Z,29.1385
2023-04-28T10:58:59.082Z,29.7000
2023-04-28T11:00:01.383Z,30.4462
2023-04-28T11:01:03.695Z,32.1692
2023-04-28T11:02:06.161Z,31.9538
2023-04-28T11:03:08.482Z,31.7250
2023-04-28T11:04:11.052Z,32.3154
2023-04-28T11:05:13.227Z,32.2917
2023-04-28T11:06:15.355Z,30.2167
2023-04-28T11:07:17.694Z,33.7308
2023-04-28T11:08:20.010Z,35.2154
2023-04-28T11:09:22.346Z,34.2692
2023-04-28T11:10:24.670Z,33.0462
2023-04-28T11:11:27.035Z,32.5615
2023-04-28T11:12:29.350Z,31.3500
2023-04-28T11:13:31.659Z,34.2077
2023-04-28T11:14:34.007Z,31.3846
2023-04-28T11:15:36.314Z,32.6385
2023-04-28T11:16:38.671Z,32.8615
2023-04-28T11:17:40.996Z,32.5692
2023-04-28T11:18:43.300Z,35.0462
2023-04-28T11:19:45.641Z,32.1308
2023-04-28T11:20:47.954Z,31.3308
2023-04-28T11:21:50.367Z,32.1077
2023-04-28T11:22:52.640Z,29.8154
2023-04-28T11:23:54.945Z,31.3308
2023-04-28T11:24:57.294Z,28.3308
2023-04-28T11:25:59.613Z,29.7385
2023-04-28T11:27:01.967Z,31.3769
2023-04-28T11:28:04.279Z,32.1769
2023-04-28T11:29:06.594Z,29.5923
2023-04-28T11:30:08.936Z,29.2308
2023-04-28T11:31:11.304Z,31.2308
2023-04-28T11:32:13.648Z,32.0462
2023-04-28T11:33:15.975Z,31.0417
2023-04-28T11:34:18.247Z,28.7000
2023-04-28T11:35:20.593Z,31.1923
2023-04-28T11:36:22.919Z,30.7077
2023-04-28T11:37:25.276Z,31.0846
2023-04-28T11:38:27.629Z,32.5769
2023-04-28T11:39:29.918Z,29.8923
2023-04-28T11:40:32.230Z,30.3769
2023-04-28T11:41:34.572Z,29.0077
2023-04-28T11:42:36.896Z,29.8692
2023-04-28T11:43:47.004Z,29.8077
2023-04-28T11:44:41.550Z,30.1727
2023-04-28T11:45:43.929Z,31.2308
2023-04-28T11:46:46.196Z,31.0769
2023-04-28T11:47:48.582Z,30.6417
2023-04-28T11:48:50.868Z,31.6833
2023-04-28T11:49:53.185Z,30.3167
2023-04-28T11:50:55.527Z,28.6308
2023-04-28T11:51:57.864Z,31.1615
2023-04-28T11:53:00.206Z,31.7083
2023-04-28T11:54:02.562Z,29.9308
2023-04-28T11:55:04.907Z,29.6154
2023-04-28T11:56:07.186Z,29.9462
2023-04-28T11:57:09.518Z,29.9692
2023-04-28T11:58:11.862Z,28.9692
2023-04-28T11:59:14.239Z,28.7308
2023-04-28T12:00:16.556Z,30.9923
2023-04-28T12:01:18.888Z,30.1923
2023-04-28T12:02:21.247Z,28.7000
2023-04-28T12:03:23.578Z,30.0692
2023-04-28T12:04:25.908Z,29.3333
2023-04-28T12:05:28.249Z,29.1308
2023-04-28T12:06:30.485Z,31.2538
2023-04-28T12:07:32.828Z,30.2000
2023-04-28T12:08:35.162Z,26.1769
2023-04-28T12:09:37.521Z,26.5000
2023-04-28T12:10:39.805Z,27.8923
2023-04-28T12:11:42.114Z,29.0154
2023-04-28T12:12:50.776Z,30.3000
2023-04-28T12:13:46.767Z,29.1091
2023-04-28T12:14:49.113Z,29.9385
2023-04-28T12:15:51.468Z,29.3615
2023-04-28T12:16:53.810Z,31.0000
2023-04-28T12:17:56.142Z,29.5385
2023-04-28T12:18:58.421Z,28.5308
2023-04-28T12:20:00.744Z,29.4231
2023-04-28T12:21:03.095Z,28.9385
2023-04-28T12:22:05.420Z,30.5308
2023-04-28T12:23:08.026Z,28.4231
2023-04-28T12:24:10.065Z,28.3250
2023-04-28T12:25:12.428Z,29.2538
2023-04-28T12:26:14.722Z,29.3769
2023-04-28T12:27:17.059Z,30.1833
2023-04-28T12:28:19.388Z,28.4385
2023-04-28T12:29:21.759Z,28.1692
2023-04-28T12:30:24.051Z,26.7615
2023-04-28T12:31:26.496Z,29.0385
2023-04-28T12:32:28.765Z,27.0846
2023-04-28T12:33:31.064Z,25.9308
2023-04-28T12:34:33.436Z,25.1846
2023-04-28T12:35:35.725Z,26.3308
2023-04-28T12:36:38.104Z,26.5000
2023-04-28T12:37:40.397Z,27.9077
2023-04-28T12:38:42.717Z,27.9769
2023-04-28T12:39:45.744Z,26.3077
2023-04-28T12:40:47.403Z,24.5250
2023-04-28T12:41:49.745Z,26.6231
2023-04-28T12:42:52.076Z,27.5846
2023-04-28T12:43:54.385Z,27.7923
2023-04-28T12:44:56.768Z,25.8769
2023-04-28T12:45:59.101Z,26.1769
2023-04-28T12:47:01.392Z,25.0231
2023-04-28T12:48:03.762Z,24.9692
2023-04-28T12:49:06.077Z,24.1846
2023-04-28T12:50:08.432Z,24.5385
2023-04-28T12:51:10.725Z,23.3462
2023-04-28T12:52:13.090Z,24.6154
2023-04-28T12:53:15.447Z,25.9846
2023-04-28T12:54:17.733Z,25.8615
2023-04-28T12:55:20.085Z,25.0000
2023-04-28T12:56:22.388Z,24.5538
2023-04-28T12:57:24.757Z,25.2538
2023-04-28T12:58:27.075Z,26.3615
2023-04-28T12:59:29.417Z,25.1846
2023-04-28T13:00:31.737Z,25.8769
2023-04-28T13:01:34.127Z,23.6615
2023-04-28T13:02:36.591Z,23.5917
2023-04-28T13:03:39.811Z,21.9250
2023-04-28T13:04:41.161Z,23.7333
2023-04-28T13:05:43.381Z,24.0167
2023-04-28T13:06:45.791Z,22.4846
2023-04-28T13:07:48.166Z,21.5692
2023-04-28T13:08:50.469Z,22.2077
2023-04-28T13:09:52.800Z,22.5231
2023-04-28T13:10:55.133Z,24.7833
2023-04-28T13:11:57.486Z,22.3385
2023-04-28T13:12:59.822Z,23.7308
2023-04-28T13:14:02.131Z,24.3462
2023-04-28T13:15:04.470Z,25.6846
2023-04-28T13:16:06.837Z,24.3615
2023-04-28T13:17:09.147Z,25.2923
2023-04-28T13:18:11.506Z,24.6692
2023-04-28T13:19:13.840Z,26.6615
2023-04-28T13:20:16.147Z,25.1308
2023-04-28T13:21:18.480Z,24.9308
2023-04-28T13:22:20.809Z,24.7077
2023-04-28T13:23:23.141Z,24.8462
2023-04-28T13:24:25.492Z,24.9692
2023-04-28T13:25:27.809Z,24.9231
2023-04-28T13:26:30.130Z,26.7923
2023-04-28T13:27:32.483Z,26.9077
2023-04-28T13:28:34.799Z,25.7667
2023-04-28T13:29:37.170Z,24.7000
2023-04-28T13:30:39.649Z,28.0154
2023-04-28T13:31:41.859Z,27.4727
2023-04-28T13:32:44.188Z,29.4462
2023-04-28T13:33:46.480Z,27.9462
2023-04-28T13:34:48.978Z,25.6833
2023-04-28T13:35:51.141Z,26.2077
2023-04-28T13:36:53.474Z,27.4000
2023-04-28T13:37:55.823Z,25.0923
2023-04-28T13:38:59.004Z,25.6385
2023-04-28T13:40:00.639Z,27.7917
2023-04-28T13:41:02.814Z,28.9538
2023-04-28T13:42:05.169Z,28.7077
2023-04-28T13:43:07.497Z,29.7769
2023-04-28T13:44:09.820Z,26.6923
2023-04-28T13:45:12.160Z,29.9769
2023-04-28T13:46:14.540Z,29.1769
2023-04-28T13:47:16.867Z,29.2231
2023-04-28T13:48:19.156Z,30.5250
2023-04-28T13:49:21.481Z,32.2923
2023-04-28T13:50:23.834Z,30.3846
2023-04-28T13:51:26.171Z,30.0417
2023-04-28T13:52:28.511Z,29.3000
2023-04-28T13:53:30.818Z,30.5615
2023-04-28T13:54:33.148Z,32.1385
2023-04-28T13:55:35.529Z,31.6077
2023-04-28T13:56:37.819Z,32.8462
2023-04-28T13:57:40.145Z,33.1692
2023-04-28T13:58:42.508Z,33.1538
2023-04-28T13:59:44.815Z,32.0308
2023-04-28T14:00:47.224Z,31.1154
2023-04-28T14:01:49.600Z,32.1615
2023-04-28T14:02:51.941Z,32.5923
2023-04-28T14:03:54.348Z,32.3583
2023-04-28T14:04:56.552Z,34.2769
2023-04-28T14:05:58.826Z,31.7333
2023-04-28T14:07:01.177Z,32.0538
2023-04-28T14:08:03.479Z,32.8417
2023-04-28T14:09:05.835Z,32.3462
2023-04-28T14:10:08.152Z,33.8538
2023-04-28T14:11:10.479Z,32.1692
2023-04-28T14:12:12.811Z,32.2846
2023-04-28T14:13:15.183Z,32.2000
2023-04-28T14:14:17.481Z,32.4923
2023-04-28T14:15:19.815Z,31.8154
2023-04-28T14:16:22.208Z,31.6308
2023-04-28T14:17:24.522Z,33.0231
2023-04-28T14:18:26.901Z,33.2846
2023-04-28T14:19:29.129Z,32.6385
2023-04-28T14:20:31.497Z,33.0462
2023-04-28T14:21:33.885Z,31.7462
2023-04-28T14:22:36.159Z,31.6385
2023-04-28T14:23:38.471Z,30.7462
2023-04-28T14:24:40.814Z,31.5231
2023-04-28T14:25:43.135Z,31.1538
2023-04-28T14:26:45.533Z,32.4000
2023-04-28T14:27:47.795Z,29.8769
2023-04-28T14:28:50.114Z,29.7333
2023-04-28T14:29:52.460Z,30.4615
2023-04-28T14:30:54.815Z,30.9692
2023-04-28T14:31:57.119Z,31.0167
2023-04-28T14:32:59.518Z,30.8538
2023-04-28T14:34:01.788Z,33.4231
2023-04-28T14:35:04.106Z,33.0538
2023-04-28T14:36:06.456Z,29.8077
2023-04-28T14:37:08.812Z,30.0538
2023-04-28T14:38:11.113Z,31.2385
2023-04-28T14:39:13.433Z,28.3231
2023-04-28T14:40:15.774Z,28.7308
2023-04-28T14:41:18.179Z,29.3538
2023-04-28T14:42:20.422Z,31.5385
2023-04-28T14:43:22.781Z,31.6385
2023-04-28T14:44:25.101Z,31.8462
2023-04-28T14:45:27.423Z,29.7846
2023-04-28T14:46:29.834Z,30.4769
2023-04-28T14:47:32.104Z,30.0462
2023-04-28T14:48:34.430Z,29.7231
2023-04-28T14:49:36.748Z,30.8615
2023-04-28T14:50:39.097Z,29.5923
2023-04-28T14:51:41.408Z,29.5077
2023-04-28T14:52:43.728Z,27.9769
2023-04-28T14:53:46.085Z,26.7769
2023-04-28T14:54:48.553Z,29.5615
2023-04-28T14:55:50.756Z,29.9750
2023-04-28T14:56:53.068Z,29.5385
2023-04-28T14:57:55.480Z,30.2667
2023-04-28T14:58:57.741Z,30.2462
2023-04-28T15:00:00.165Z,28.7231
2023-04-28T15:01:02.365Z,30.7231
2023-04-28T15:02:04.780Z,30.1231
2023-04-28T15:04:09.612Z,31.2385
2023-04-28T15:05:11.826Z,29.4083
2023-04-28T15:06:14.020Z,28.4385
2023-04-28T15:07:16.354Z,28.5769
2023-04-28T15:08:18.700Z,29.5385
2023-04-28T15:09:21.072Z,29.6692
2023-04-28T15:10:23.327Z,30.7385
2023-04-28T15:11:25.658Z,28.5923
2023-04-28T15:12:27.988Z,28.9833
2023-04-28T15:13:30.341Z,27.9538
2023-04-28T15:14:32.660Z,29.6846
2023-04-28T15:15:34.995Z,28.9538
2023-04-28T15:16:37.401Z,29.8846
2023-04-28T15:17:39.709Z,30.0462
2023-04-28T15:18:41.961Z,30.7692
2023-04-28T15:19:44.351Z,30.1615
2023-04-28T15:20:46.725Z,32.6615
2023-04-28T15:21:48.948Z,30.7077
2023-04-28T15:22:51.276Z,30.1833
2023-04-28T15:23:53.647Z,30.3154
2023-04-28T15:24:55.980Z,29.5538
2023-04-28T15:25:58.273Z,30.2846
2023-04-28T15:27:00.594Z,27.8692
2023-04-28T15:28:02.917Z,27.7923
2023-04-28T15:29:05.286Z,29.2308
2023-04-28T15:30:07.573Z,29.9231
2023-04-28T15:31:09.948Z,30.3385
2023-04-28T15:32:12.229Z,28.8538
2023-04-28T15:33:14.639Z,30.7000
2023-04-28T15:34:16.890Z,29.8308
2023-04-28T15:35:19.217Z,29.7769
2023-04-28T15:36:21.568Z,29.0769
2023-04-28T15:37:23.872Z,29.6154
2023-04-28T15:38:28.208Z,28.1077
2023-04-28T15:39:28.662Z,31.5000
2023-04-28T15:40:30.894Z,30.1500
2023-04-28T15:41:33.231Z,30.1846
2023-04-28T15:42:35.525Z,30.4385
2023-04-28T15:43:37.856Z,28.8231
2023-04-28T15:44:40.204Z,31.1154
2023-04-28T15:45:42.551Z,30.1923
2023-04-28T15:46:44.873Z,27.8000
2023-04-28T15:47:47.416Z,27.8231
2023-04-28T15:48:49.488Z,29.5250
2023-04-28T15:49:51.829Z,28.3231
2023-04-28T15:50:54.151Z,28.0615
2023-04-28T15:51:56.532Z,30.3923
2023-04-28T15:52:58.809Z,30.2692
2023-04-28T15:54:01.151Z,29.7308
2023-04-28T15:55:03.465Z,29.0615
2023-04-28T15:56:05.790Z,27.8077
2023-04-28T15:57:08.191Z,30.2231
2023-04-28T15:58:10.497Z,29.2231
2023-04-28T15:59:12.826Z,29.9923
2023-04-28T16:00:15.121Z,29.2692
2023-04-28T16:01:17.510Z,28.9462
2023-04-28T16:02:20.089Z,28.4083
2023-04-28T16:03:22.287Z,30.0000
2023-04-28T16:04:24.543Z,30.1917
2023-04-28T16:05:26.796Z,29.1385
2023-04-28T16:06:29.112Z,27.9231
2023-04-28T16:07:31.444Z,29.3846
2023-04-28T16:08:43.085Z,30.7154
2023-04-28T16:09:36.088Z,30.2455
2023-04-28T16:10:38.418Z,29.9385
2023-04-28T16:11:40.752Z,29.7538
2023-04-28T16:12:43.153Z,30.1000
2023-04-28T16:13:45.445Z,30.6615
2023-04-28T16:14:47.741Z,28.3538
2023-04-28T16:15:50.065Z,30.1308
2023-04-28T16:16:52.414Z,29.8692
2023-04-28T16:17:54.993Z,28.2923
2023-04-28T16:18:57.082Z,26.3083
2023-04-28T16:19:59.393Z,27.0923
2023-04-28T16:21:01.723Z,28.7231
2023-04-28T16:22:04.061Z,29.4077
2023-04-28T16:23:06.361Z,30.6000
2023-04-28T16:24:08.952Z,30.2308
2023-04-28T16:25:11.040Z,29.9000
2023-04-28T16:26:13.358Z,30.6538
2023-04-28T16:27:15.697Z,31.0538
2023-04-28T16:28:18.016Z,31.5077
2023-04-28T16:29:20.353Z,31.7769
2023-04-28T16:30:22.675Z,28.8077
2023-04-28T16:31:25.066Z,28.7923
2023-04-28T16:32:27.386Z,28.5769
2023-04-28T16:33:29.659Z,29.6846
2023-04-28T16:34:31.999Z,30.0923
2023-04-28T16:35:34.337Z,30.8462
2023-04-28T16:36:36.690Z,29.6615
2023-04-28T16:37:38.989Z,29.6077
2023-04-28T16:38:41.321Z,30.7917
2023-04-28T16:39:43.861Z,30.8692
2023-04-28T16:40:45.981Z,31.2091
2023-04-28T16:41:48.314Z,29.7538
2023-04-28T16:42:50.642Z,31.7538
2023-04-28T16:43:52.983Z,31.8077
2023-04-28T16:44:55.357Z,30.8923
2023-04-28T16:45:57.701Z,28.4154
2023-04-28T16:47:00.055Z,31.1917
2023-04-28T16:48:02.397Z,30.6615
2023-04-28T16:49:04.674Z,30.5846
2023-04-28T16:50:07.008Z,30.8615
2023-04-28T16:51:09.316Z,29.7154
2023-04-28T16:52:11.667Z,29.2462
2023-04-28T16:53:13.988Z,28.8615
2023-04-28T16:54:16.323Z,30.0385
2023-04-28T16:55:18.685Z,29.4923
2023-04-28T16:56:21.138Z,30.9000
2023-04-28T16:57:23.315Z,31.7923
2023-04-28T16:58:25.664Z,29.7846
2023-04-28T16:59:27.981Z,29.8231
2023-04-28T17:00:30.353Z,30.6154
2023-04-28T17:01:32.682Z,30.4154
2023-04-28T17:02:35.218Z,31.4846
2023-04-28T17:03:37.436Z,30.6083
2023-04-28T17:04:39.805Z,30.2231
2023-04-28T17:05:41.982Z,30.7462
2023-04-28T17:06:44.299Z,29.6077
2023-04-28T17:07:46.630Z,29.9000
2023-04-28T17:08:48.969Z,29.1692
2023-04-28T17:09:51.556Z,29.3231
2023-04-28T17:10:53.627Z,28.6000
2023-04-28T17:11:56.041Z,28.9500
2023-04-28T17:12:58.511Z,28.6462
2023-04-28T17:14:00.738Z,30.9333
2023-04-28T17:15:03.064Z,29.6538
2023-04-28T17:16:05.377Z,29.8500
2023-04-28T17:17:07.723Z,27.5769
2023-04-28T17:18:10.064Z,28.6000
2023-04-28T17:19:12.390Z,29.3000
2023-04-28T17:20:14.708Z,28.4333
2023-04-28T17:21:17.032Z,30.0000
2023-04-28T17:22:19.357Z,31.1231
2023-04-28T17:23:21.717Z,29.7462
2023-04-28T17:24:24.050Z,31.7231
2023-04-28T17:25:26.351Z,29.3692
2023-04-28T17:26:28.700Z,29.9538
2023-04-28T17:27:31.030Z,30.7923
2023-04-28T17:28:33.348Z,31.2923
2023-04-28T17:29:35.713Z,29.4923
2023-04-28T17:30:38.023Z,29.9615
2023-04-28T17:31:40.362Z,28.8308
2023-04-28T17:32:42.714Z,28.8923
2023-04-28T17:33:45.070Z,30.5769
2023-04-28T17:34:47.375Z,30.6250
2023-04-28T17:35:49.674Z,29.1154
2023-04-28T17:36:52.044Z,27.0692
2023-04-28T17:37:54.348Z,30.1583
2023-04-28T17:38:56.668Z,29.1615
2023-04-28T17:39:59.060Z,29.9615
2023-04-28T17:41:01.367Z,29.0154
2023-04-28T17:42:03.659Z,29.8308
2023-04-28T17:43:06.011Z,28.0769
2023-04-28T17:44:08.346Z,28.4692
2023-04-28T17:45:10.740Z,27.1462
2023-04-28T17:46:13.009Z,26.4692
2023-04-28T17:47:17.042Z,24.9231
2023-04-28T17:48:17.728Z,25.9167
2023-04-28T17:49:20.015Z,28.1769
2023-04-28T17:50:22.435Z,28.0462
2023-04-28T17:51:24.685Z,26.6000
2023-04-28T17:52:27.012Z,25.4833
2023-04-28T17:53:29.351Z,27.0308
2023-04-28T17:54:31.680Z,29.0231
2023-04-28T17:55:34.035Z,27.4462
2023-04-28T17:56:36.368Z,27.7385
2023-04-28T17:57:38.684Z,27.6500
2023-04-28T17:58:41.071Z,28.4667
2023-04-28T17:59:43.346Z,27.7462
2023-04-28T18:00:45.707Z,27.4000
2023-04-28T18:01:48.056Z,28.7538
2023-04-28T18:02:50.424Z,28.8000
2023-04-28T18:03:52.694Z,27.9462
2023-04-28T18:04:55.027Z,28.4385
2023-04-28T18:05:57.361Z,31.0692
2023-04-28T18:06:59.725Z,29.7615
2023-04-28T18:08:02.025Z,31.2167
2023-04-28T18:09:04.358Z,31.1077
2023-04-28T18:10:06.713Z,29.2462
2023-04-28T18:11:09.023Z,29.5083
2023-04-28T18:12:11.404Z,28.9385
2023-04-28T18:13:13.680Z,32.6462
2023-04-28T18:14:16.028Z,30.9154
2023-04-28T18:15:18.346Z,30.3000
2023-04-28T18:16:20.709Z,31.2615
2023-04-28T18:17:23.140Z,32.2615
2023-04-28T18:18:27.222Z,32.4250
2023-04-28T18:19:27.685Z,30.0667
2023-04-28T18:20:30.021Z,30.0538
2023-04-28T18:21:32.401Z,32.2154
2023-04-28T18:22:34.695Z,32.4308
2023-04-28T18:23:37.037Z,31.1385
2023-04-28T18:24:39.356Z,31.9846
2023-04-28T18:25:41.761Z,32.8615
2023-04-28T18:26:44.051Z,31.6250
2023-04-28T18:27:46.348Z,30.5167
2023-04-28T18:28:48.723Z,31.8538
2023-04-28T18:29:51.010Z,32.6846
2023-04-28T18:30:53.440Z,31.0667
2023-04-28T18:31:55.722Z,31.4846
2023-04-28T18:32:58.050Z,32.4000
2023-04-28T18:34:00.339Z,30.9308
2023-04-28T18:35:02.674Z,33.1769
2023-04-28T18:36:05.030Z,32.7917
2023-04-28T18:37:07.337Z,32.0077
2023-04-28T18:38:09.660Z,32.4769
2023-04-28T18:39:11.983Z,32.2231
2023-04-28T18:40:14.333Z,31.2667
2023-04-28T18:41:16.651Z,31.2538
2023-04-28T18:42:19.008Z,32.7615
2023-04-28T18:43:21.305Z,33.1538
2023-04-28T18:44:23.690Z,33.0385
2023-04-28T18:45:26.182Z,30.5154
2023-04-28T18:46:28.326Z,30.5615
2023-04-28T18:47:30.714Z,30.8923
2023-04-28T18:48:32.955Z,29.7750
2023-04-28T18:49:35.292Z,31.5385
2023-04-28T18:50:37.657Z,30.5385
2023-04-28T18:51:39.952Z,30.5692
2023-04-28T18:52:42.286Z,29.8154
2023-04-28T18:53:44.619Z,30.0385
2023-04-28T18:54:46.964Z,29.5923
2023-04-28T18:55:49.325Z,30.3692
2023-04-28T18:56:51.680Z,30.7385
2023-04-28T18:57:53.976Z,29.9615
2023-04-28T18:58:56.314Z,30.7154
2023-04-28T18:59:58.610Z,31.4231
2023-04-28T19:01:00.978Z,29.4077
2023-04-28T19:02:03.268Z,31.9000
2023-04-28T19:03:05.766Z,29.3538
2023-04-28T19:04:08.356Z,30.4385
2023-04-28T19:05:10.251Z,30.2917
2023-04-28T19:06:12.673Z,32.2231
2023-04-28T19:07:14.923Z,30.6846
2023-04-28T19:08:17.273Z,27.9750
2023-04-28T19:09:19.622Z,28.7231
2023-04-28T19:10:21.918Z,28.2308
2023-04-28T19:11:24.274Z,29.4923
2023-04-28T19:12:26.584Z,27.2462
2023-04-28T19:13:28.924Z,28.8154
2023-04-28T19:14:31.244Z,29.8615
2023-04-28T19:15:33.579Z,31.7154
2023-04-28T19:16:35.910Z,31.8250
2023-04-28T19:17:38.292Z,29.6154
2023-04-28T19:18:40.602Z,27.1500
2023-04-28T19:19:42.909Z,26.5000
2023-04-28T19:20:45.262Z,27.6462
2023-04-28T19:21:47.623Z,27.7417
2023-04-28T19:22:49.897Z,30.9077
2023-04-28T19:23:52.217Z,30.0308
2023-04-28T19:24:54.551Z,31.1154
2023-04-28T19:25:57.040Z,30.6000
2023-04-28T19:26:59.269Z,31.3462
2023-04-28T19:28:01.563Z,30.0154
2023-04-28T19:29:03.880Z,30.1333
2023-04-28T19:30:06.224Z,34.5154
2023-04-28T19:31:08.770Z,35.5077
2023-04-28T19:32:10.945Z,53.0333
2023-04-28T19:33:13.327Z,27.7167
2023-04-28T19:34:15.630Z,28.8462
2023-04-28T19:35:17.983Z,28.7583
2023-04-28T19:36:20.366Z,28.7308
2023-04-28T19:37:22.754Z,29.6231
2023-04-28T19:38:24.892Z,30.2500
2023-04-28T19:39:29.209Z,30.2385
2023-04-28T19:40:29.523Z,30.3250
2023-04-28T19:41:31.879Z,30.8333
2023-04-28T19:42:34.215Z,32.7923
2023-04-28T19:43:36.508Z,31.2615
2023-04-28T19:44:38.842Z,30.1385
2023-04-28T19:45:41.265Z,29.4538
2023-04-28T19:46:45.662Z,30.9308
2023-04-28T19:47:46.402Z,32.0750
2023-04-28T19:48:48.155Z,33.2500
2023-04-28T19:49:50.709Z,31.3769
2023-04-28T19:50:52.910Z,32.5917
2023-04-28T19:51:55.166Z,33.4250
2023-04-28T19:52:57.468Z,32.1077
2023-04-28T19:53:59.787Z,30.7615
2023-04-28T19:55:02.273Z,33.5154
2023-04-28T19:56:04.444Z,33.1923
2023-04-28T19:57:06.819Z,30.9500
2023-04-28T19:58:09.359Z,31.6692
2023-04-28T19:59:11.514Z,30.9500
2023-04-28T20:00:13.754Z,31.6154
2023-04-28T20:01:16.087Z,32.1846
2023-04-28T20:02:18.479Z,32.0692
2023-04-28T20:03:20.836Z,34.5769
2023-04-28T20:04:23.239Z,35.6417
2023-04-28T20:05:25.590Z,38.0583
2023-04-28T20:06:27.732Z,39.1000
2023-04-28T20:07:30.082Z,38.8308
2023-04-28T20:08:32.387Z,38.4923
2023-04-28T20:09:34.697Z,40.9917
2023-04-28T20:10:37.025Z,39.1154
2023-04-28T20:11:39.358Z,36.5846
2023-04-28T20:12:42.688Z,35.8923
2023-04-28T20:13:44.012Z,36.1917
2023-04-28T20:14:46.321Z,36.3308
2023-04-28T20:15:48.685Z,38.4538
2023-04-28T20:16:51.012Z,37.9154
2023-04-28T20:17:53.344Z,36.7692
2023-04-28T20:18:55.655Z,37.9615
2023-04-28T20:19:57.965Z,35.9615
2023-04-28T20:21:00.304Z,35.8615
2023-04-28T20:22:02.646Z,37.5667
2023-04-28T20:23:04.987Z,35.3462
2023-04-28T20:24:07.319Z,36.5417
2023-04-28T20:25:09.587Z,37.4923
2023-04-28T20:26:11.921Z,36.5846
2023-04-28T20:27:14.275Z,34.3692
2023-04-28T20:28:26.045Z,37.9077
2023-04-28T20:29:18.920Z,36.5545
2023-04-28T20:30:21.233Z,38.0250
2023-04-28T20:31:23.592Z,40.3154
2023-04-28T20:32:25.910Z,39.6846
2023-04-28T20:33:28.239Z,38.0667
2023-04-28T20:34:30.554Z,36.3846
2023-04-28T20:35:32.868Z,35.6846
2023-04-28T20:36:35.230Z,34.9308
2023-04-28T20:37:37.525Z,34.3000
2023-04-28T20:38:39.880Z,34.7692
2023-04-28T20:39:42.194Z,31.6846
2023-04-28T20:40:44.520Z,32.6769
2023-04-28T20:41:46.839Z,32.5333
2023-04-28T20:42:49.984Z,35.2000
2023-04-28T20:43:51.500Z,37.3417
2023-04-28T20:44:53.835Z,34.4231
2023-04-28T20:45:56.148Z,34.0077
2023-04-28T20:46:58.511Z,32.2923
2023-04-28T20:48:00.834Z,33.4846
2023-04-28T20:49:03.178Z,33.8385
2023-04-28T20:50:05.449Z,35.6154
2023-04-28T20:51:07.813Z,32.8769
2023-04-28T20:52:10.104Z,33.1923
2023-04-28T20:53:12.523Z,33.0615
2023-04-28T20:54:14.782Z,34.1769
2023-04-28T20:55:17.097Z,34.0167
2023-04-28T20:56:19.443Z,34.9385
2023-04-28T20:57:21.743Z,35.8000
2023-04-28T20:58:24.078Z,35.4462
2023-04-28T20:59:26.414Z,36.0462
2023-04-28T21:00:28.757Z,34.8333
2023-04-28T21:01:31.069Z,35.0077
2023-04-28T21:02:33.454Z,35.2769
2023-04-28T21:03:35.734Z,33.9385
2023-04-28T21:04:38.062Z,36.3538
2023-04-28T21:05:40.408Z,35.9846
2023-04-28T21:06:42.691Z,35.6000
2023-04-28T21:07:45.027Z,33.6000
2023-04-28T21:08:47.355Z,34.4667
2023-04-28T21:09:50.190Z,32.6769
2023-04-28T21:10:52.012Z,31.1167
2023-04-28T21:11:54.363Z,32.6615
2023-04-28T21:12:56.670Z,32.9385
2023-04-28T21:13:59.007Z,34.1923
2023-04-28T21:15:01.348Z,35.5167
2023-04-28T21:16:03.931Z,34.7333
2023-04-28T21:17:06.094Z,35.6417
2023-04-28T21:18:08.556Z,34.7154
2023-04-28T21:19:10.819Z,34.1462
2023-04-28T21:20:13.080Z,32.6769
2023-04-28T21:21:15.564Z,32.3462
2023-04-28T21:22:17.732Z,32.1154
2023-04-28T21:23:20.386Z,33.3769
2023-04-28T21:24:22.396Z,33.5750
2023-04-28T21:25:24.748Z,33.4308
2023-04-28T21:26:27.045Z,34.8462
2023-04-28T21:27:29.379Z,35.4917
2023-04-28T21:28:31.706Z,33.9846
2023-04-28T21:29:34.033Z,34.8154
2023-04-28T21:30:36.456Z,35.2154
2023-04-28T21:31:38.771Z,34.5385
2023-04-28T21:32:41.685Z,34.3000
2023-04-28T21:33:43.365Z,32.4667
2023-04-28T21:34:45.685Z,35.1231
2023-04-28T21:35:48.032Z,36.1154